createdAt,value
2019-05-25T00:02:18.732Z,13.20
2019-05-25T00:04:49.283Z,13.10
2019-05-25T00:07:19.962Z,13.20
2019-05-25T00:09:50.430Z,13.20
2019-05-25T00:12:21.111Z,13.10
2019-05-25T00:14:51.603Z,13.10
2019-05-25T00:17:22.015Z,13.10
2019-05-25T00:19:52.413Z,13.10
2019-05-25T00:22:22.908Z,13.10
2019-05-25T00:24:53.593Z,13.20
2019-05-25T00:27:24.061Z,13.20
2019-05-25T00:29:54.505Z,13.30
2019-05-25T00:32:25.188Z,13.20
2019-05-25T00:34:55.725Z,13.20
2019-05-25T00:37:26.241Z,13.30
2019-05-25T00:39:56.790Z,13.30
2019-05-25T00:42:27.300Z,13.30
2019-05-25T00:44:57.740Z,13.30
2019-05-25T00:47:28.371Z,13.30
2019-05-25T00:49:58.845Z,13.20
2019-05-25T00:52:29.319Z,13.20
2019-05-25T00:54:59.796Z,13.30
2019-05-25T00:57:30.545Z,13.30
2019-05-25T01:00:01.030Z,13.30
2019-05-25T01:02:31.632Z,13.30
2019-05-25T01:05:02.181Z,13.30
2019-05-25T01:07:32.645Z,13.30
2019-05-25T01:10:03.208Z,13.40
2019-05-25T01:12:33.646Z,13.40
2019-05-25T01:15:05.804Z,13.40
2019-05-25T01:17:36.272Z,13.40
2019-05-25T01:20:08.190Z,13.40
2019-05-25T01:22:38.633Z,13.50
2019-05-25T01:25:10.778Z,13.40
2019-05-25T01:27:41.189Z,13.40
2019-05-25T01:30:12.719Z,13.50
2019-05-25T01:32:43.166Z,13.50
2019-05-25T01:35:13.999Z,13.40
2019-05-25T01:37:48.228Z,13.10
2019-05-25T01:40:17.090Z,12.90
2019-05-25T01:42:47.540Z,12.80
2019-05-25T01:45:18.368Z,12.70
2019-05-25T01:47:49.012Z,12.70
2019-05-25T01:50:19.537Z,12.60
2019-05-25T01:52:50.110Z,12.60
2019-05-25T01:55:20.730Z,12.60
2019-05-25T01:57:51.192Z,12.80
2019-05-25T02:00:22.395Z,12.70
2019-05-25T02:02:52.957Z,12.80
2019-05-25T02:05:23.394Z,12.70
2019-05-25T02:07:54.004Z,12.80
2019-05-25T02:10:24.468Z,12.80
2019-05-25T02:12:54.907Z,12.80
2019-05-25T02:15:25.379Z,12.80
2019-05-25T02:17:55.915Z,12.90
2019-05-25T02:20:26.388Z,12.90
2019-05-25T02:22:56.889Z,12.80
2019-05-25T02:25:27.418Z,12.70
2019-05-25T02:27:57.922Z,12.60
2019-05-25T02:30:29.048Z,12.60
2019-05-25T02:33:00.535Z,12.70
2019-05-25T02:35:31.938Z,12.70
2019-05-25T02:38:02.396Z,12.70
2019-05-25T02:40:33.086Z,12.80
2019-05-25T02:43:03.529Z,12.70
2019-05-25T02:45:34.016Z,12.60
2019-05-25T02:48:04.640Z,12.50
2019-05-25T02:50:35.063Z,12.50
2019-05-25T02:53:05.778Z,12.50
2019-05-25T02:55:36.225Z,12.60
2019-05-25T02:58:07.039Z,12.60
2019-05-25T03:00:37.896Z,12.60
2019-05-25T03:03:08.492Z,12.50
2019-05-25T03:05:39.086Z,12.50
2019-05-25T03:08:09.577Z,12.40
2019-05-25T03:10:41.106Z,12.40
2019-05-25T03:13:11.930Z,12.30
2019-05-25T03:15:42.380Z,12.30
2019-05-25T03:18:12.829Z,12.30
2019-05-25T03:20:43.327Z,12.30
2019-05-25T03:23:13.834Z,12.30
2019-05-25T03:25:49.478Z,12.30
2019-05-25T03:28:17.281Z,12.30
2019-05-25T03:30:47.770Z,12.20
2019-05-25T03:33:18.218Z,12.30
2019-05-25T03:35:48.663Z,12.20
2019-05-25T03:38:19.194Z,12.10
2019-05-25T03:40:49.817Z,12.10
2019-05-25T03:43:20.345Z,12.20
2019-05-25T03:45:51.322Z,12.20
2019-05-25T03:48:21.803Z,12.20
2019-05-25T03:50:52.373Z,12.30
2019-05-25T03:53:22.912Z,12.30
2019-05-25T03:56:05.277Z,12.30
2019-05-25T03:58:25.566Z,12.20
2019-05-25T04:00:56.073Z,12.20
2019-05-25T04:03:26.605Z,12.20
2019-05-25T04:05:57.046Z,12.30
2019-05-25T04:08:27.553Z,12.30
2019-05-25T04:10:58.079Z,12.30
2019-05-25T04:13:28.489Z,12.30
2019-05-25T04:16:01.625Z,12.30
2019-05-25T04:18:32.604Z,12.30
2019-05-25T04:21:03.079Z,12.30
2019-05-25T04:23:33.808Z,12.20
2019-05-25T04:26:04.325Z,12.20
2019-05-25T04:28:34.798Z,12.10
2019-05-25T04:31:05.607Z,12.10
2019-05-25T04:33:36.316Z,12.10
2019-05-25T04:36:06.744Z,12.10
2019-05-25T04:38:37.669Z,12.20
2019-05-25T04:41:08.089Z,12.20
2019-05-25T04:43:38.684Z,12.20
2019-05-25T04:46:09.124Z,12.20
2019-05-25T04:48:39.611Z,12.30
2019-05-25T04:51:10.618Z,12.30
2019-05-25T04:53:41.122Z,12.20
2019-05-25T04:56:11.585Z,12.30
2019-05-25T04:58:42.223Z,12.30
2019-05-25T05:01:12.672Z,12.40
2019-05-25T05:03:43.112Z,12.40
2019-05-25T05:06:13.547Z,12.50
2019-05-25T05:08:44.030Z,12.60
2019-05-25T05:11:14.866Z,12.60
2019-05-25T05:13:45.258Z,12.50
2019-05-25T05:16:15.709Z,12.60
2019-05-25T05:18:46.168Z,12.70
2019-05-25T05:21:16.657Z,12.80
2019-05-25T05:23:47.128Z,12.80
2019-05-25T05:26:17.677Z,12.80
2019-05-25T05:28:49.257Z,12.70
2019-05-25T05:31:23.443Z,12.80
2019-05-25T05:33:52.180Z,12.70
2019-05-25T05:36:24.824Z,12.60
2019-05-25T05:38:57.794Z,12.50
2019-05-25T05:41:31.795Z,12.50
2019-05-25T05:44:04.729Z,12.40
2019-05-25T05:46:37.080Z,12.40
2019-05-25T05:49:11.148Z,12.40
2019-05-25T05:51:45.123Z,12.50
2019-05-25T05:54:19.576Z,12.60
2019-05-25T05:56:50.480Z,12.60
2019-05-25T05:59:21.019Z,12.70
2019-05-25T06:01:51.537Z,12.80
2019-05-25T06:04:21.975Z,12.80
2019-05-25T06:06:52.418Z,13.00
2019-05-25T06:09:23.046Z,13.00
2019-05-25T06:11:53.492Z,13.10
2019-05-25T06:14:24.219Z,13.10
2019-05-25T06:16:54.833Z,13.10
2019-05-25T06:19:25.278Z,13.10
2019-05-25T06:21:55.744Z,13.20
2019-05-25T06:24:26.213Z,13.30
2019-05-25T06:26:56.781Z,13.20
2019-05-25T06:29:27.432Z,13.20
2019-05-25T06:31:58.060Z,13.20
2019-05-25T06:34:28.545Z,13.20
2019-05-25T06:36:59.001Z,13.10
2019-05-25T06:39:29.480Z,13.10
2019-05-25T06:41:59.966Z,13.20
2019-05-25T06:44:30.562Z,13.30
2019-05-25T06:47:00.967Z,13.30
2019-05-25T06:49:31.472Z,13.30
2019-05-25T06:52:01.890Z,13.30
2019-05-25T06:54:32.519Z,13.30
2019-05-25T06:57:03.044Z,13.40
2019-05-25T06:59:33.664Z,13.30
2019-05-25T07:02:04.340Z,13.30
2019-05-25T07:04:34.762Z,13.40
2019-05-25T07:07:05.225Z,13.50
2019-05-25T07:09:35.681Z,13.50
2019-05-25T07:12:06.146Z,13.60
2019-05-25T07:14:36.601Z,13.60
2019-05-25T07:17:07.053Z,13.60
2019-05-25T07:19:37.686Z,13.60
2019-05-25T07:22:08.235Z,13.40
2019-05-25T07:24:38.703Z,13.40
2019-05-25T07:27:09.183Z,13.40
2019-05-25T07:29:39.594Z,13.40
2019-05-25T07:32:32.495Z,13.40
2019-05-25T07:35:03.145Z,13.50
2019-05-25T07:37:33.681Z,13.70
2019-05-25T07:40:04.678Z,13.70
2019-05-25T07:42:35.159Z,13.70
2019-05-25T07:45:06.295Z,13.70
2019-05-25T07:47:36.849Z,13.60
2019-05-25T07:50:08.548Z,13.70
2019-05-25T07:52:39.027Z,13.70
2019-05-25T07:55:10.231Z,13.70
2019-05-25T07:57:41.762Z,13.80
2019-05-25T08:00:12.447Z,13.80
2019-05-25T08:02:42.928Z,13.70
2019-05-25T08:05:13.692Z,13.80
2019-05-25T08:07:44.335Z,13.80
2019-05-25T08:10:15.399Z,13.80
2019-05-25T08:12:46.031Z,13.90
2019-05-25T08:15:16.873Z,14.00
2019-05-25T08:17:47.426Z,14.00
2019-05-25T08:20:17.853Z,14.00
2019-05-25T08:22:48.303Z,13.90
2019-05-25T08:25:18.733Z,13.90
2019-05-25T08:27:49.198Z,13.90
2019-05-25T08:30:19.654Z,14.00
2019-05-25T08:32:50.149Z,14.10
2019-05-25T08:35:20.621Z,14.10
2019-05-25T08:37:51.197Z,14.20
2019-05-25T08:40:21.682Z,14.20
2019-05-25T08:42:52.582Z,14.30
2019-05-25T08:45:25.982Z,14.40
2019-05-25T08:47:57.520Z,14.40
2019-05-25T08:50:37.723Z,14.50
2019-05-25T08:53:00.617Z,14.60
2019-05-25T08:55:31.143Z,14.70
2019-05-25T08:58:01.573Z,14.80
2019-05-25T09:00:32.127Z,14.80
2019-05-25T09:03:02.794Z,14.90
2019-05-25T09:05:33.235Z,15.10
2019-05-25T09:08:03.734Z,15.20
2019-05-25T09:10:34.286Z,15.20
2019-05-25T09:13:04.922Z,15.20
2019-05-25T09:15:35.467Z,15.30
2019-05-25T09:18:05.983Z,15.70
2019-05-25T09:20:36.542Z,16.00
2019-05-25T09:23:07.205Z,16.10
2019-05-25T09:25:37.697Z,15.60
2019-05-25T09:28:08.221Z,15.60
2019-05-25T09:30:38.830Z,15.50
2019-05-25T09:33:09.339Z,15.30
2019-05-25T09:35:39.888Z,15.20
2019-05-25T09:38:10.393Z,15.20
2019-05-25T09:40:41.410Z,15.20
2019-05-25T09:43:11.968Z,15.10
2019-05-25T09:45:43.020Z,15.10
2019-05-25T09:48:13.544Z,15.00
2019-05-25T09:50:44.366Z,15.00
2019-05-25T09:53:14.912Z,15.10
2019-05-25T09:55:45.515Z,15.20
2019-05-25T09:58:16.042Z,15.20
2019-05-25T10:00:46.816Z,15.30
2019-05-25T10:03:17.562Z,15.30
2019-05-25T10:05:48.146Z,15.20
2019-05-25T10:08:18.630Z,15.30
2019-05-25T10:10:49.080Z,15.40
2019-05-25T10:13:19.731Z,15.40
2019-05-25T10:15:50.180Z,15.40
2019-05-25T10:18:20.941Z,15.40
2019-05-25T10:20:51.839Z,15.40
2019-05-25T10:23:22.532Z,15.50
2019-05-25T10:25:53.358Z,15.60
2019-05-25T10:28:24.090Z,15.80
2019-05-25T10:30:55.232Z,16.00
2019-05-25T10:33:25.857Z,16.30
2019-05-25T10:35:56.424Z,16.60
2019-05-25T10:38:26.918Z,16.90
2019-05-25T10:40:58.671Z,17.30
2019-05-25T10:43:29.532Z,17.30
2019-05-25T10:46:00.046Z,17.30
2019-05-25T10:48:30.614Z,17.30
2019-05-25T10:51:01.156Z,17.10
2019-05-25T10:53:31.870Z,17.00
2019-05-25T10:56:02.283Z,17.00
2019-05-25T10:58:32.808Z,16.90
2019-05-25T11:01:03.327Z,16.80
2019-05-25T11:03:33.781Z,16.80
2019-05-25T11:06:05.232Z,16.60
2019-05-25T11:08:35.719Z,16.80
2019-05-25T11:11:06.145Z,16.90
2019-05-25T11:13:37.301Z,16.90
2019-05-25T11:16:07.833Z,17.10
2019-05-25T11:18:38.406Z,17.20
2019-05-25T11:21:08.907Z,17.20
2019-05-25T11:23:39.340Z,17.30
2019-05-25T11:26:09.960Z,17.40
2019-05-25T11:28:40.454Z,17.30
2019-05-25T11:31:11.182Z,17.40
2019-05-25T11:33:42.005Z,17.20
2019-05-25T11:36:12.539Z,17.20
2019-05-25T11:38:43.161Z,17.40
2019-05-25T11:41:13.697Z,17.40
2019-05-25T11:43:44.631Z,17.50
2019-05-25T11:46:15.187Z,17.60
2019-05-25T11:48:45.786Z,17.80
2019-05-25T11:51:16.318Z,17.60
2019-05-25T11:53:47.297Z,17.60
2019-05-25T11:56:18.015Z,18.00
2019-05-25T11:58:48.600Z,18.50
2019-05-25T12:01:19.464Z,18.50
2019-05-25T12:03:50.058Z,18.40
2019-05-25T12:06:20.646Z,18.30
2019-05-25T12:08:51.484Z,18.10
2019-05-25T12:11:21.882Z,18.00
2019-05-25T12:13:52.308Z,17.80
2019-05-25T12:16:22.801Z,17.60
2019-05-25T12:18:53.476Z,17.50
2019-05-25T12:21:24.179Z,17.40
2019-05-25T12:23:54.685Z,17.30
2019-05-25T12:26:25.252Z,17.30
2019-05-25T12:28:56.223Z,17.20
2019-05-25T12:31:26.727Z,17.10
2019-05-25T12:33:57.309Z,17.10
2019-05-25T12:36:27.773Z,17.10
2019-05-25T12:38:58.327Z,17.20
2019-05-25T12:41:28.796Z,17.30
2019-05-25T12:43:59.272Z,17.50
2019-05-25T12:46:29.851Z,17.70
2019-05-25T12:49:00.322Z,17.70
2019-05-25T12:51:30.880Z,17.50
2019-05-25T12:54:01.342Z,17.50
2019-05-25T12:56:31.841Z,17.60
2019-05-25T12:59:02.460Z,17.70
2019-05-25T13:01:33.096Z,17.80
2019-05-25T13:04:04.013Z,17.80
2019-05-25T13:06:35.491Z,18.00
2019-05-25T13:09:08.457Z,18.10
2019-05-25T13:11:38.966Z,18.10
2019-05-25T13:14:14.431Z,18.30
2019-05-25T13:16:41.843Z,18.50
2019-05-25T13:19:12.399Z,18.60
2019-05-25T13:21:43.046Z,18.70
2019-05-25T13:24:13.754Z,18.60
2019-05-25T13:26:44.797Z,18.40
2019-05-25T13:29:15.343Z,18.50
2019-05-25T13:31:45.836Z,18.70
2019-05-25T13:34:16.249Z,18.90
2019-05-25T13:36:46.906Z,18.70
2019-05-25T13:39:17.352Z,19.10
2019-05-25T13:41:47.820Z,19.90
2019-05-25T13:44:18.365Z,20.30
2019-05-25T13:46:49.107Z,20.60
2019-05-25T13:49:19.778Z,22.30
2019-05-25T13:51:50.622Z,21.50
2019-05-25T13:54:21.202Z,21.60
2019-05-25T13:56:51.678Z,22.40
2019-05-25T13:59:22.130Z,23.10
2019-05-25T14:01:52.929Z,23.70
2019-05-25T14:04:23.395Z,23.60
2019-05-25T14:06:53.825Z,23.90
2019-05-25T14:09:24.600Z,23.50
2019-05-25T14:11:55.514Z,23.00
2019-05-25T14:14:26.109Z,22.00
2019-05-25T14:16:56.653Z,21.90
2019-05-25T14:19:27.328Z,21.60
2019-05-25T14:21:57.999Z,20.90
2019-05-25T14:24:28.612Z,21.30
2019-05-25T14:26:59.055Z,21.30
2019-05-25T14:29:29.610Z,21.10
2019-05-25T14:32:00.091Z,20.50
2019-05-25T14:34:30.538Z,20.40
2019-05-25T14:37:01.063Z,20.50
2019-05-25T14:39:31.496Z,20.80
2019-05-25T14:42:02.320Z,20.80
2019-05-25T14:44:32.934Z,20.70
2019-05-25T14:47:03.811Z,20.40
2019-05-25T14:49:34.239Z,20.30
2019-05-25T14:52:04.898Z,20.60
2019-05-25T14:54:35.514Z,21.00
2019-05-25T14:57:06.079Z,21.10
2019-05-25T14:59:36.657Z,20.80
2019-05-25T15:02:09.568Z,20.40
2019-05-25T15:04:40.174Z,20.20
2019-05-25T15:07:10.840Z,20.10
2019-05-25T15:09:41.821Z,20.50
2019-05-25T15:12:12.455Z,20.60
2019-05-25T15:14:43.222Z,20.70
2019-05-25T15:17:13.683Z,20.70
2019-05-25T15:19:44.167Z,20.70
2019-05-25T15:22:14.860Z,20.50
2019-05-25T15:24:45.715Z,20.20
2019-05-25T15:27:16.481Z,20.00
2019-05-25T15:29:47.917Z,19.70
2019-05-25T15:32:20.507Z,19.30
2019-05-25T15:34:50.704Z,19.50
2019-05-25T15:37:21.261Z,19.80
2019-05-25T15:39:52.107Z,20.20
2019-05-25T15:42:22.595Z,20.50
2019-05-25T15:44:53.256Z,20.30
2019-05-25T15:47:23.684Z,20.20
2019-05-25T15:49:54.564Z,19.90
2019-05-25T15:52:25.329Z,20.00
2019-05-25T15:54:55.865Z,20.00
2019-05-25T15:57:26.705Z,20.10
2019-05-25T15:59:57.222Z,20.20
2019-05-25T16:02:36.769Z,20.30
2019-05-25T16:05:00.494Z,20.20
2019-05-25T16:07:32.136Z,20.00
2019-05-25T16:10:02.818Z,19.70
2019-05-25T16:12:33.230Z,19.60
2019-05-25T16:15:03.722Z,19.70
2019-05-25T16:17:34.192Z,19.80
2019-05-25T16:20:05.289Z,20.00
2019-05-25T16:22:35.867Z,19.80
2019-05-25T16:25:07.549Z,19.80
2019-05-25T16:27:38.033Z,19.60
2019-05-25T16:30:08.911Z,19.70
2019-05-25T16:33:10.093Z,19.90
2019-05-25T16:35:11.880Z,19.90
2019-05-25T16:37:43.012Z,19.70
2019-05-25T16:40:14.783Z,19.40
2019-05-25T16:42:45.269Z,19.20
2019-05-25T16:45:16.161Z,19.30
2019-05-25T16:47:46.911Z,19.40
2019-05-25T16:50:19.985Z,19.10
2019-05-25T16:52:50.547Z,18.90
2019-05-25T16:55:21.107Z,19.00
2019-05-25T16:57:51.953Z,19.10
2019-05-25T17:00:41.493Z,19.40
2019-05-25T17:03:26.998Z,19.50
2019-05-25T17:05:44.208Z,19.60
2019-05-25T17:08:14.810Z,19.40
2019-05-25T17:10:45.415Z,19.30
2019-05-25T17:13:15.842Z,19.00
2019-05-25T17:15:46.334Z,18.90
2019-05-25T17:18:16.900Z,18.80
2019-05-25T17:20:47.414Z,18.60
2019-05-25T17:23:17.852Z,18.30
2019-05-25T17:25:48.380Z,18.30
2019-05-25T17:28:18.824Z,18.10
2019-05-25T17:30:49.563Z,18.20
2019-05-25T17:33:20.030Z,18.20
2019-05-25T17:35:50.487Z,18.10
2019-05-25T17:38:20.980Z,18.20
2019-05-25T17:40:51.422Z,18.10
2019-05-25T17:43:21.872Z,17.90
2019-05-25T17:45:52.362Z,17.90
2019-05-25T17:48:22.858Z,17.80
2019-05-25T17:50:53.313Z,17.90
2019-05-25T17:53:23.839Z,17.80
2019-05-25T17:55:54.343Z,17.80
2019-05-25T17:58:24.877Z,17.80
2019-05-25T18:00:55.350Z,17.90
2019-05-25T18:03:25.942Z,17.80
2019-05-25T18:05:56.415Z,17.90
2019-05-25T18:08:26.968Z,17.80
2019-05-25T18:10:57.445Z,17.80
2019-05-25T18:13:29.081Z,17.80
2019-05-25T18:15:59.779Z,17.90
2019-05-25T18:18:30.275Z,17.80
2019-05-25T18:21:00.812Z,17.80
2019-05-25T18:23:31.366Z,17.80
2019-05-25T18:26:01.907Z,17.80
2019-05-25T18:28:32.483Z,17.70
2019-05-25T18:31:03.040Z,17.70
2019-05-25T18:33:33.581Z,17.60
2019-05-25T18:36:04.049Z,17.70
2019-05-25T18:38:34.647Z,17.60
2019-05-25T18:41:05.230Z,17.80
2019-05-25T18:43:35.755Z,17.70
2019-05-25T18:46:06.736Z,17.60
2019-05-25T18:48:37.252Z,17.50
2019-05-25T18:51:07.633Z,17.60
2019-05-25T18:53:38.076Z,17.50
2019-05-25T18:56:08.544Z,17.30
2019-05-25T18:58:39.051Z,17.20
2019-05-25T19:01:09.579Z,17.10
2019-05-25T19:03:40.167Z,17.20
2019-05-25T19:06:10.716Z,17.10
2019-05-25T19:08:41.153Z,17.00
2019-05-25T19:11:11.833Z,17.10
2019-05-25T19:13:42.318Z,17.20
2019-05-25T19:16:12.880Z,17.00
2019-05-25T19:18:43.530Z,16.90
2019-05-25T19:21:14.077Z,16.80
2019-05-25T19:23:44.509Z,16.90
2019-05-25T19:26:14.923Z,16.70
2019-05-25T19:28:45.420Z,16.50
2019-05-25T19:31:15.863Z,16.50
2019-05-25T19:33:46.427Z,16.40
2019-05-25T19:36:16.910Z,16.20
2019-05-25T19:38:47.433Z,16.00
2019-05-25T19:41:17.925Z,15.90
2019-05-25T19:43:48.390Z,15.90
2019-05-25T19:46:18.848Z,15.80
2019-05-25T19:48:49.328Z,15.70
2019-05-25T19:51:19.785Z,15.90
2019-05-25T19:53:50.304Z,15.90
2019-05-25T19:56:20.770Z,15.80
2019-05-25T19:58:51.211Z,15.60
2019-05-25T20:01:21.765Z,15.50
2019-05-25T20:03:52.210Z,15.40
2019-05-25T20:06:22.720Z,15.40
2019-05-25T20:08:53.175Z,15.40
2019-05-25T20:11:23.638Z,15.40
2019-05-25T20:13:54.084Z,15.40
2019-05-25T20:16:25.237Z,15.30
2019-05-25T20:18:55.924Z,15.40
2019-05-25T20:21:26.381Z,15.40
2019-05-25T20:23:56.879Z,15.40
2019-05-25T20:26:27.435Z,15.40
2019-05-25T20:28:57.869Z,15.30
2019-05-25T20:31:28.315Z,15.20
2019-05-25T20:33:58.881Z,15.20
2019-05-25T20:36:29.493Z,15.10
2019-05-25T20:38:59.936Z,15.10
2019-05-25T20:41:30.490Z,14.90
2019-05-25T20:44:01.058Z,14.90
2019-05-25T20:46:31.510Z,14.80
2019-05-25T20:49:02.165Z,14.80
2019-05-25T20:51:32.678Z,14.80
2019-05-25T20:54:03.203Z,14.90
2019-05-25T20:56:33.688Z,14.80
2019-05-25T20:59:04.114Z,14.80
2019-05-25T21:01:34.559Z,14.70
2019-05-25T21:04:05.084Z,14.60
2019-05-25T21:06:35.616Z,14.60
2019-05-25T21:09:07.985Z,14.60
2019-05-25T21:11:38.586Z,14.50
2019-05-25T21:14:09.031Z,14.50
2019-05-25T21:16:39.525Z,14.50
2019-05-25T21:19:09.976Z,14.40
2019-05-25T21:21:40.535Z,14.40
2019-05-25T21:24:11.026Z,14.40
2019-05-25T21:26:41.591Z,14.30
2019-05-25T21:29:12.053Z,14.30
2019-05-25T21:31:42.547Z,14.30
2019-05-25T21:34:13.032Z,14.30
2019-05-25T21:36:43.535Z,14.30
2019-05-25T21:39:14.032Z,14.20
2019-05-25T21:41:44.542Z,14.20
2019-05-25T21:44:15.072Z,14.20
2019-05-25T21:46:45.579Z,14.10
2019-05-25T21:49:16.146Z,14.00
2019-05-25T21:51:46.649Z,14.00
2019-05-25T21:54:17.086Z,14.00
2019-05-25T21:56:47.685Z,14.00
2019-05-25T21:59:18.158Z,13.90
2019-05-25T22:01:48.626Z,13.80
2019-05-25T22:04:19.141Z,13.80
2019-05-25T22:06:49.689Z,13.70
2019-05-25T22:09:20.290Z,13.60
2019-05-25T22:11:50.780Z,13.60
2019-05-25T22:14:21.229Z,13.60
2019-05-25T22:16:51.853Z,13.50
2019-05-25T22:19:22.348Z,13.40
2019-05-25T22:21:52.820Z,13.40
2019-05-25T22:24:23.373Z,13.30
2019-05-25T22:26:54.121Z,13.30
2019-05-25T22:29:24.688Z,13.30
2019-05-25T22:31:55.167Z,13.20
2019-05-25T22:34:25.707Z,13.20
2019-05-25T22:36:56.571Z,13.20
2019-05-25T22:39:27.099Z,13.00
2019-05-25T22:41:57.580Z,13.00
2019-05-25T22:44:28.218Z,13.00
2019-05-25T22:46:59.697Z,13.00
2019-05-25T22:49:30.262Z,13.10
2019-05-25T22:52:00.930Z,13.10
2019-05-25T22:54:31.482Z,13.10
2019-05-25T22:57:01.966Z,13.00
2019-05-25T22:59:32.683Z,13.00
2019-05-25T23:02:03.494Z,13.00
2019-05-25T23:04:33.934Z,13.00
2019-05-25T23:07:05.282Z,13.00
2019-05-25T23:09:36.191Z,12.90
2019-05-25T23:12:06.808Z,13.00
2019-05-25T23:14:37.285Z,12.90
2019-05-25T23:17:07.864Z,12.90
2019-05-25T23:19:38.390Z,12.90
2019-05-25T23:22:09.348Z,12.90
2019-05-25T23:24:41.755Z,13.00
2019-05-25T23:27:15.371Z,13.00
2019-05-25T23:29:44.704Z,12.80
2019-05-25T23:32:15.365Z,12.80
2019-05-25T23:34:45.976Z,12.80
2019-05-25T23:37:16.487Z,12.80
2019-05-25T23:39:47.033Z,12.80
2019-05-25T23:42:17.741Z,12.70
2019-05-25T23:44:48.340Z,12.80
2019-05-25T23:47:18.823Z,12.70
2019-05-25T23:49:49.411Z,12.70
2019-05-25T23:52:19.875Z,12.70
2019-05-25T23:54:50.322Z,12.70
2019-05-25T23:57:21.045Z,12.60
2019-05-25T23:59:51.646Z,12.70
